createdAt,value
2022-07-28T00:00:08.650Z,50.56
2022-07-28T00:05:07.913Z,50.61
2022-07-28T00:10:08.669Z,50.63
2022-07-28T00:15:08.369Z,50.68
2022-07-28T00:20:08.180Z,50.71
2022-07-28T00:25:07.896Z,50.72
2022-07-28T00:30:08.622Z,50.76
2022-07-28T00:35:08.854Z,50.78
2022-07-28T00:40:08.614Z,50.78
2022-07-28T00:45:08.351Z,50.83
2022-07-28T00:50:08.062Z,50.85
2022-07-28T00:55:07.752Z,50.88
2022-07-28T01:00:08.485Z,50.89
2022-07-28T01:05:08.175Z,50.95
2022-07-28T01:10:07.917Z,50.95
2022-07-28T01:15:08.659Z,50.98
2022-07-28T01:20:12.640Z,51.0
2022-07-28T01:25:08.401Z,51.03
2022-07-28T01:30:08.183Z,51.03
2022-07-28T01:35:07.915Z,51.07
2022-07-28T01:40:08.634Z,51.09
2022-07-28T01:45:08.376Z,51.09
2022-07-28T01:50:08.121Z,51.14
2022-07-28T01:55:07.869Z,51.17
2022-07-28T02:00:08.590Z,51.19
2022-07-28T02:05:08.375Z,51.23
2022-07-28T02:10:08.125Z,51.27
2022-07-28T02:15:07.797Z,51.3
2022-07-28T02:20:08.579Z,51.32
2022-07-28T02:25:10.166Z,51.34
2022-07-28T02:30:07.872Z,51.37
2022-07-28T02:35:09.433Z,51.4
2022-07-28T02:40:08.729Z,51.44
2022-07-28T02:45:08.496Z,51.44
2022-07-28T02:50:08.352Z,51.47
2022-07-28T02:55:08.029Z,51.5
2022-07-28T03:00:07.927Z,51.53
2022-07-28T03:05:11.453Z,51.56
2022-07-28T03:10:08.462Z,51.57
2022-07-28T03:15:08.180Z,51.56
2022-07-28T03:20:07.966Z,51.6
2022-07-28T03:25:07.716Z,51.63
2022-07-28T03:30:08.417Z,51.64
2022-07-28T03:35:08.157Z,51.69
2022-07-28T03:40:07.895Z,51.7
2022-07-28T03:45:08.624Z,51.71
2022-07-28T03:50:08.340Z,51.73
2022-07-28T03:55:08.050Z,51.79
2022-07-28T04:00:09.902Z,51.78
2022-07-28T04:05:01.919Z,51.8
2022-07-28T04:10:03.006Z,51.8
2022-07-28T04:15:01.822Z,51.84
2022-07-28T04:20:02.744Z,51.86
2022-07-28T04:25:02.688Z,51.88
2022-07-28T04:30:12.556Z,51.91
2022-07-28T04:35:01.793Z,51.92
2022-07-28T04:40:02.628Z,51.92
2022-07-28T04:45:02.434Z,51.95
2022-07-28T04:50:02.298Z,51.96
2022-07-28T04:55:02.713Z,51.97
2022-07-28T05:00:02.617Z,51.99
2022-07-28T05:05:02.268Z,52.0
2022-07-28T05:10:02.439Z,52.02
2022-07-28T05:15:02.402Z,52.03
2022-07-28T05:20:03.368Z,52.02
2022-07-28T05:25:02.667Z,52.03
2022-07-28T05:30:02.553Z,52.02
2022-07-28T05:35:02.280Z,52.01
2022-07-28T05:40:02.239Z,51.99
2022-07-28T05:45:02.134Z,51.93
2022-07-28T05:50:02.013Z,51.89
2022-07-28T05:55:01.886Z,51.84
2022-07-28T06:00:03.984Z,51.82
2022-07-28T06:05:01.840Z,51.75
2022-07-28T06:10:02.732Z,51.72
2022-07-28T06:15:02.205Z,51.69
2022-07-28T06:20:02.147Z,51.65
2022-07-28T06:25:02.415Z,51.6
2022-07-28T06:30:02.076Z,51.56
2022-07-28T06:35:02.064Z,51.52
2022-07-28T06:40:01.852Z,51.49
2022-07-28T06:45:02.651Z,51.41
2022-07-28T06:50:02.560Z,51.38
2022-07-28T06:55:02.674Z,51.35
2022-07-28T07:00:02.444Z,51.31
2022-07-28T07:05:02.302Z,51.31
2022-07-28T07:10:02.078Z,51.29
2022-07-28T07:15:02.034Z,51.28
2022-07-28T07:20:01.829Z,51.26
2022-07-28T07:25:02.583Z,51.22
2022-07-28T07:30:02.435Z,51.16
2022-07-28T07:35:02.249Z,51.11
2022-07-28T07:40:02.092Z,51.09
2022-07-28T07:45:01.911Z,50.98
2022-07-28T07:50:04.394Z,50.94
2022-07-28T07:55:02.612Z,50.83
2022-07-28T08:00:02.410Z,50.77
2022-07-28T08:05:02.227Z,50.7
2022-07-28T08:10:02.087Z,50.63
2022-07-28T08:15:02.027Z,50.56
2022-07-28T08:20:01.916Z,50.53
2022-07-28T08:25:02.736Z,50.42
2022-07-28T08:30:02.515Z,50.41
2022-07-28T08:35:31.154Z,50.33
2022-07-28T08:40:02.478Z,50.33
2022-07-28T08:45:02.316Z,50.26
2022-07-28T08:50:02.262Z,50.21
2022-07-28T08:55:02.260Z,50.17
2022-07-28T09:00:02.344Z,50.07
2022-07-28T09:05:02.396Z,50.04
2022-07-28T09:10:03.066Z,49.99
2022-07-28T09:15:02.114Z,49.94
2022-07-28T09:20:03.466Z,49.89
2022-07-28T09:25:02.048Z,49.85
2022-07-28T09:30:01.898Z,49.77
2022-07-28T09:35:02.761Z,49.71
2022-07-28T09:40:04.189Z,49.67
2022-07-28T09:45:21.852Z,49.6
2022-07-28T09:50:02.685Z,49.55
2022-07-28T09:55:02.918Z,49.5
2022-07-28T10:00:02.730Z,49.46
2022-07-28T10:05:02.651Z,49.38
2022-07-28T10:10:02.498Z,49.3
2022-07-28T10:15:02.475Z,49.21
2022-07-28T10:20:02.379Z,49.14
2022-07-28T10:25:02.157Z,49.04
2022-07-28T10:30:01.987Z,48.97
2022-07-28T10:35:01.827Z,48.88
2022-07-28T10:40:07.772Z,48.82
2022-07-28T10:45:02.710Z,48.74
2022-07-28T10:50:02.717Z,48.61
2022-07-28T10:55:02.633Z,48.5
2022-07-28T11:00:12.312Z,48.43
2022-07-28T11:05:02.242Z,48.32
2022-07-28T11:10:02.146Z,48.27
2022-07-28T11:15:18.175Z,48.18
2022-07-28T11:20:26.380Z,48.07
2022-07-28T11:25:20.012Z,47.98
2022-07-28T11:30:02.590Z,47.84
2022-07-28T11:35:02.349Z,47.71
2022-07-28T11:40:02.327Z,47.64
2022-07-28T11:45:02.267Z,47.52
2022-07-28T11:50:01.933Z,47.43
2022-07-28T11:55:02.794Z,47.35
2022-07-28T12:00:02.934Z,47.24
2022-07-28T12:05:01.981Z,47.17
2022-07-28T12:10:01.922Z,47.08
2022-07-28T12:15:06.867Z,46.94
2022-07-28T12:20:02.371Z,46.81
2022-07-28T12:25:02.770Z,46.58
2022-07-28T12:30:02.300Z,46.4
2022-07-28T12:35:02.100Z,46.16
2022-07-28T12:40:01.950Z,46.04
2022-07-28T12:45:01.797Z,45.94
2022-07-28T12:50:06.891Z,45.84
2022-07-28T12:55:02.335Z,45.75
2022-07-28T13:00:02.206Z,45.73
2022-07-28T13:05:02.163Z,45.64
2022-07-28T13:10:02.026Z,45.54
2022-07-28T13:15:02.170Z,45.48
2022-07-28T13:20:02.003Z,45.44
2022-07-28T13:25:01.863Z,45.37
2022-07-28T13:30:02.877Z,45.25
2022-07-28T13:35:02.696Z,45.22
2022-07-28T13:40:02.530Z,45.12
2022-07-28T13:45:02.279Z,45.02
2022-07-28T13:50:01.947Z,44.99
2022-07-28T13:55:03.779Z,44.93
2022-07-28T14:00:02.051Z,44.8
2022-07-28T14:05:02.328Z,44.76
2022-07-28T14:10:02.226Z,44.65
2022-07-28T14:15:02.204Z,44.55
2022-07-28T14:20:02.092Z,44.55
2022-07-28T14:25:01.891Z,44.59
2022-07-28T14:30:03.635Z,44.47
2022-07-28T14:35:02.326Z,44.58
2022-07-28T14:40:02.426Z,44.57
2022-07-28T14:45:02.344Z,44.58
2022-07-28T14:50:02.199Z,44.59
2022-07-28T14:55:02.112Z,44.56
2022-07-28T15:00:01.986Z,44.58
2022-07-28T15:05:02.038Z,44.61
2022-07-28T15:10:01.865Z,44.58
2022-07-28T15:15:02.856Z,44.59
2022-07-28T15:20:02.693Z,44.59
2022-07-28T15:25:02.519Z,44.61
2022-07-28T15:30:03.206Z,44.6
2022-07-28T15:35:02.286Z,44.64
2022-07-28T15:40:02.114Z,44.65
2022-07-28T15:45:01.929Z,44.65
2022-07-28T15:50:02.684Z,44.66
2022-07-28T15:55:02.638Z,44.64
2022-07-28T16:00:02.449Z,44.67
2022-07-28T16:05:02.273Z,44.68
2022-07-28T16:10:02.138Z,44.69
2022-07-28T16:15:01.911Z,44.71
2022-07-28T16:20:02.959Z,44.75
2022-07-28T16:25:01.784Z,44.75
2022-07-28T16:30:02.701Z,44.79
2022-07-28T16:35:02.518Z,44.83
2022-07-28T16:40:02.325Z,44.87
2022-07-28T16:45:02.162Z,44.89
2022-07-28T16:50:02.079Z,44.91
2022-07-28T16:55:01.989Z,44.96
2022-07-28T17:00:01.963Z,44.98
2022-07-28T17:05:01.934Z,45.0
2022-07-28T17:10:01.882Z,45.03
2022-07-28T17:15:02.951Z,45.06
2022-07-28T17:20:01.861Z,45.08
2022-07-28T17:25:02.698Z,45.11
2022-07-28T17:30:02.454Z,45.13
2022-07-28T17:35:02.204Z,45.17
2022-07-28T17:40:04.608Z,45.17
2022-07-28T17:45:02.852Z,45.22
2022-07-28T17:50:02.675Z,45.26
2022-07-28T17:55:02.492Z,45.27
2022-07-28T18:00:02.453Z,45.32
2022-07-28T18:05:02.284Z,45.36
2022-07-28T18:10:02.098Z,45.38
2022-07-28T18:15:02.045Z,45.39
2022-07-28T18:20:01.845Z,45.43
2022-07-28T18:25:02.711Z,45.47
2022-07-28T18:30:02.594Z,45.51
2022-07-28T18:35:02.446Z,45.57
2022-07-28T18:40:02.380Z,45.58
2022-07-28T18:45:02.213Z,45.64
2022-07-28T18:50:02.091Z,45.66
2022-07-28T18:55:01.937Z,45.7
2022-07-28T19:00:02.866Z,45.73
2022-07-28T19:05:02.654Z,45.79
2022-07-28T19:10:02.717Z,45.81
2022-07-28T19:15:02.555Z,45.84
2022-07-28T19:20:02.337Z,45.89
2022-07-28T19:25:02.080Z,45.93
2022-07-28T19:30:03.020Z,45.97
2022-07-28T19:35:01.925Z,46.01
2022-07-28T19:40:02.796Z,46.05
2022-07-28T19:45:02.755Z,46.08
2022-07-28T19:50:02.666Z,46.12
2022-07-28T19:55:02.571Z,46.17
2022-07-28T20:00:02.020Z,46.21
2022-07-28T20:05:01.945Z,46.26
2022-07-28T20:10:01.686Z,46.29
2022-07-28T20:15:02.594Z,46.33
2022-07-28T20:20:02.335Z,46.35
2022-07-28T20:25:02.186Z,46.39
2022-07-28T20:30:01.879Z,46.42
2022-07-28T20:35:15.525Z,46.46
2022-07-28T20:40:08.228Z,46.46
2022-07-28T20:45:07.951Z,46.57
2022-07-28T20:50:07.660Z,46.59
2022-07-28T20:55:08.352Z,46.64
2022-07-28T21:00:08.077Z,46.67
2022-07-28T21:05:07.784Z,46.69
2022-07-28T21:10:08.150Z,46.75
2022-07-28T21:15:07.841Z,46.77
2022-07-28T21:20:08.594Z,46.8
2022-07-28T21:25:08.319Z,46.84
2022-07-28T21:30:07.991Z,46.84
2022-07-28T21:35:13.817Z,46.91
2022-07-28T21:40:07.932Z,46.92
2022-07-28T21:45:11.141Z,46.95
2022-07-28T21:50:08.144Z,47.0
2022-07-28T21:55:07.881Z,47.0
2022-07-28T22:00:08.624Z,47.05
2022-07-28T22:05:08.413Z,47.06
2022-07-28T22:10:08.212Z,47.1
2022-07-28T22:15:07.900Z,47.11
2022-07-28T22:20:08.634Z,47.15
2022-07-28T22:25:08.361Z,47.2
2022-07-28T22:30:08.069Z,47.21
2022-07-28T22:35:07.754Z,47.24
2022-07-28T22:40:08.498Z,47.29
2022-07-28T22:45:08.199Z,47.32
2022-07-28T22:50:07.921Z,47.32
2022-07-28T22:55:08.626Z,47.38
2022-07-28T23:00:57.278Z,47.41
2022-07-28T23:05:08.323Z,47.44
2022-07-28T23:10:08.044Z,47.44
2022-07-28T23:15:07.749Z,47.49
2022-07-28T23:20:08.454Z,47.53
2022-07-28T23:25:08.199Z,47.54
2022-07-28T23:30:07.945Z,47.56
2022-07-28T23:35:07.686Z,47.62
2022-07-28T23:40:08.415Z,47.64
2022-07-28T23:45:08.128Z,47.67
2022-07-28T23:50:07.858Z,47.7
2022-07-28T23:55:08.602Z,47.74
